Time;durP1;ratioP1;P1;durP2;ratioP2;P2;SDS_P1;SDS_P2;PMS_P1;PMS_P2;Temp;Humidity;BMP_temperature;BMP_pressure;BME280_temperature;BME280_humidity;BME280_pressure;Samples;Min_cycle;Max_cycle;Signal;HPM_P1;HPM_P2
2023/06/09 00:03:41;;;;;;;8.32;3.13;;;;;;;;;;10361172;28;20432;-76
2023/06/09 00:08:41;;;;;;;6.30;3.28;;;;;;;;;;10366032;28;20022;-81
2023/06/09 00:13:42;;;;;;;7.60;3.42;;;;;;;;;;10364790;28;20139;-78
2023/06/09 00:18:43;;;;;;;9.90;3.70;;;;;;;;;;10363746;28;20410;-79
2023/06/09 00:23:45;;;;;;;7.55;3.95;;;;;;;;;;10344949;28;20493;-81
2023/06/09 00:28:45;;;;;;;5.97;3.05;;;;;;;;;;10390194;28;20049;-73
2023/06/09 00:39:23;;;;;;;6.80;3.50;;;;;;;;;;10393332;28;20026;-74
2023/06/09 00:44:25;;;;;;;12.35;3.78;;;;;;;;;;10378618;28;20014;-74
2023/06/09 00:49:26;;;;;;;6.95;3.63;;;;;;;;;;10378493;28;20490;-79
2023/06/09 00:54:26;;;;;;;5.90;3.42;;;;;;;;;;10360308;28;20144;-78
2023/06/09 00:59:28;;;;;;;5.80;3.15;;;;;;;;;;10363088;28;20032;-81
2023/06/09 01:04:29;;;;;;;7.10;3.45;;;;;;;;;;10347920;28;20116;-79
2023/06/09 01:09:34;;;;;;;6.65;3.10;;;;;;;;;;10362950;28;20034;-83
2023/06/09 01:14:46;;;;;;;5.03;2.85;;;;;;;;;;10328865;28;20360;-78
2023/06/09 01:19:48;;;;;;;6.13;3.30;;;;;;;;;;10316909;28;20062;-78
2023/06/09 01:24:58;;;;;;;7.63;3.78;;;;;;;;;;10321526;28;20513;-80
2023/06/09 01:29:59;;;;;;;5.75;4.13;;;;;;;;;;10352494;28;20026;-78
2023/06/09 01:35:02;;;;;;;7.20;3.53;;;;;;;;;;10366688;28;20378;-84
2023/06/09 01:40:03;;;;;;;9.70;3.47;;;;;;;;;;10361010;28;20101;-83
2023/06/09 01:45:03;;;;;;;9.13;3.78;;;;;;;;;;10359470;28;20029;-77
2023/06/09 01:50:16;;;;;;;9.25;3.70;;;;;;;;;;10361455;28;20029;-77
2023/06/09 01:55:22;;;;;;;6.38;4.05;;;;;;;;;;10358200;28;20116;-78
2023/06/09 02:00:24;;;;;;;6.57;3.08;;;;;;;;;;10357928;28;20029;-78
2023/06/09 02:05:25;;;;;;;5.82;3.75;;;;;;;;;;10358252;28;20032;-76
2023/06/09 02:10:25;;;;;;;5.35;3.60;;;;;;;;;;10360715;28;20378;-81
2023/06/09 02:15:26;;;;;;;5.45;3.10;;;;;;;;;;10362479;28;20022;-80
2023/06/09 02:20:26;;;;;;;5.97;3.00;;;;;;;;;;10356816;28;20034;-80
2023/06/09 02:25:28;;;;;;;7.97;3.42;;;;;;;;;;10368791;28;20062;-80
2023/06/09 02:30:28;;;;;;;8.18;5.25;;;;;;;;;;10380462;28;20026;-78
2023/06/09 02:35:29;;;;;;;4.77;3.53;;;;;;;;;;10371782;28;20014;-76
2023/06/09 02:40:29;;;;;;;6.50;3.58;;;;;;;;;;10365675;28;20038;-81
2023/06/09 02:45:30;;;;;;;7.40;3.90;;;;;;;;;;10363780;28;20029;-78
2023/06/09 02:50:30;;;;;;;8.45;3.83;;;;;;;;;;10363168;28;20123;-76
2023/06/09 02:55:32;;;;;;;3.22;2.88;;;;;;;;;;10363120;28;20022;-77
2023/06/09 03:00:32;;;;;;;11.95;5.15;;;;;;;;;;10365007;28;20054;-82
2023/06/09 03:05:35;;;;;;;13.27;4.93;;;;;;;;;;10347770;28;20032;-76
2023/06/09 03:10:35;;;;;;;7.65;3.53;;;;;;;;;;10363626;28;20092;-79
2023/06/09 03:15:36;;;;;;;5.68;3.53;;;;;;;;;;10363638;28;20634;-80
2023/06/09 03:20:37;;;;;;;5.57;3.20;;;;;;;;;;10368801;28;20092;-78
2023/06/09 03:25:39;;;;;;;6.38;3.08;;;;;;;;;;10373472;28;20474;-79
2023/06/09 03:30:39;;;;;;;5.03;3.13;;;;;;;;;;10378596;28;20018;-76
2023/06/09 03:35:39;;;;;;;8.47;4.03;;;;;;;;;;10380226;28;20022;-85
2023/06/09 03:40:43;;;;;;;5.32;3.35;;;;;;;;;;10367034;28;20034;-86
2023/06/09 03:45:43;;;;;;;6.57;4.07;;;;;;;;;;10362163;28;20022;-80
2023/06/09 03:50:46;;;;;;;9.63;4.47;;;;;;;;;;10370416;28;20018;-84
2023/06/09 03:55:46;;;;;;;7.18;3.40;;;;;;;;;;10358940;28;20029;-77
2023/06/09 04:00:47;;;;;;;6.13;3.33;;;;;;;;;;10364468;28;20029;-85
2023/06/09 04:05:47;;;;;;;3.97;3.20;;;;;;;;;;10364966;28;20045;-81
2023/06/09 04:10:48;;;;;;;6.53;3.00;;;;;;;;;;10365705;28;20121;-78
2023/06/09 04:15:49;;;;;;;4.82;2.78;;;;;;;;;;10365780;28;20025;-84
2023/06/09 04:20:50;;;;;;;6.25;3.25;;;;;;;;;;10353308;28;20022;-75
2023/06/09 04:25:53;;;;;;;4.63;2.65;;;;;;;;;;10367505;28;20045;-82
2023/06/09 04:30:57;;;;;;;7.65;3.25;;;;;;;;;;10375884;28;20041;-81
2023/06/09 04:35:57;;;;;;;5.32;3.03;;;;;;;;;;10374796;28;20022;-82
2023/06/09 04:41:02;;;;;;;8.30;3.42;;;;;;;;;;10370862;28;20025;-81
2023/06/09 04:46:05;;;;;;;6.15;2.72;;;;;;;;;;10346501;28;20398;-82
2023/06/09 04:51:06;;;;;;;4.80;2.90;;;;;;;;;;10362276;28;20381;-79
2023/06/09 04:56:26;;;;;;;6.65;2.90;;;;;;;;;;10363580;28;20010;-79
2023/06/09 05:01:39;;;;;;;5.25;2.67;;;;;;;;;;10359780;28;20036;-79
2023/06/09 05:06:39;;;;;;;3.63;2.35;;;;;;;;;;10359903;28;20021;-76
2023/06/09 05:12:08;;;;;;;4.78;2.78;;;;;;;;;;10371328;28;20053;-78
2023/06/09 05:17:11;;;;;;;5.68;2.35;;;;;;;;;;10367351;28;20038;-79
2023/06/09 05:22:11;;;;;;;4.10;2.15;;;;;;;;;;10356333;28;20595;-75
2023/06/09 05:27:12;;;;;;;4.97;2.83;;;;;;;;;;10357486;28;20084;-81
2023/06/09 05:32:12;;;;;;;9.98;2.85;;;;;;;;;;10358731;28;20030;-79
2023/06/09 05:37:14;;;;;;;10.88;3.35;;;;;;;;;;10355034;28;20551;-76
2023/06/09 05:42:15;;;;;;;4.90;2.50;;;;;;;;;;10354432;28;20037;-80
2023/06/09 05:47:15;;;;;;;6.20;2.65;;;;;;;;;;10351304;28;20462;-79
2023/06/09 05:52:15;;;;;;;4.88;2.28;;;;;;;;;;10352762;28;20051;-81
2023/06/09 05:57:15;;;;;;;6.55;3.13;;;;;;;;;;10354613;28;20113;-76
2023/06/09 06:02:16;;;;;;;5.60;3.00;;;;;;;;;;10357278;28;20058;-76
2023/06/09 06:07:17;;;;;;;5.18;2.53;;;;;;;;;;10356542;28;20037;-76
2023/06/09 06:12:18;;;;;;;5.57;2.72;;;;;;;;;;10353191;28;20470;-76
2023/06/09 06:17:18;;;;;;;4.93;2.22;;;;;;;;;;10344872;28;20117;-77
2023/06/09 06:22:18;;;;;;;4.32;2.42;;;;;;;;;;10344332;28;20422;-76
2023/06/09 06:27:20;;;;;;;4.40;2.30;;;;;;;;;;10343943;28;20397;-78
2023/06/09 06:32:20;;;;;;;3.08;1.83;;;;;;;;;;10351337;28;20026;-80
2023/06/09 06:37:22;;;;;;;6.17;2.63;;;;;;;;;;10340560;28;20026;-76
2023/06/09 06:42:22;;;;;;;3.55;2.20;;;;;;;;;;10341213;28;20041;-76
2023/06/09 06:47:22;;;;;;;8.50;2.40;;;;;;;;;;10333570;28;20454;-81
2023/06/09 06:52:23;;;;;;;4.95;2.03;;;;;;;;;;10350634;28;20113;-75
2023/06/09 06:57:23;;;;;;;9.70;3.75;;;;;;;;;;10335996;28;20021;-83
2023/06/09 07:02:23;;;;;;;11.23;2.40;;;;;;;;;;10347287;28;20072;-79
2023/06/09 07:07:26;;;;;;;23.27;2.70;;;;;;;;;;10345631;28;20476;-76
2023/06/09 07:12:26;;;;;;;9.10;2.83;;;;;;;;;;10336319;28;20036;-76
2023/06/09 07:17:26;;;;;;;6.15;2.75;;;;;;;;;;10347151;28;20031;-80
2023/06/09 07:22:50;;;;;;;8.02;2.35;;;;;;;;;;10357202;28;20041;-77
2023/06/09 07:27:50;;;;;;;9.20;3.28;;;;;;;;;;10359416;28;20501;-74
2023/06/09 07:32:51;;;;;;;7.28;2.92;;;;;;;;;;10354697;28;20034;-72
2023/06/09 07:37:58;;;;;;;10.77;3.20;;;;;;;;;;10363545;28;20021;-77
2023/06/09 07:42:58;;;;;;;13.38;3.72;;;;;;;;;;10360372;28;20174;-80
2023/06/09 07:47:58;;;;;;;8.25;2.95;;;;;;;;;;10360385;28;20087;-74
2023/06/09 07:52:58;;;;;;;14.10;2.92;;;;;;;;;;10358638;28;20037;-75
2023/06/09 07:57:59;;;;;;;5.90;2.92;;;;;;;;;;10364603;28;20025;-77
2023/06/09 08:03:01;;;;;;;7.20;2.53;;;;;;;;;;10359579;28;20168;-73
2023/06/09 08:08:02;;;;;;;9.70;3.38;;;;;;;;;;10359035;28;20041;-78
2023/06/09 08:13:03;;;;;;;7.88;2.80;;;;;;;;;;10360905;28;20029;-74
2023/06/09 08:18:03;;;;;;;6.85;2.50;;;;;;;;;;10361668;28;20025;-74
2023/06/09 08:23:03;;;;;;;5.45;2.28;;;;;;;;;;10359951;28;20129;-74
2023/06/09 08:28:03;;;;;;;20.15;3.20;;;;;;;;;;10359510;28;20089;-73
2023/06/09 08:33:04;;;;;;;9.87;2.70;;;;;;;;;;10359915;28;20022;-74
2023/06/09 08:38:04;;;;;;;7.63;2.63;;;;;;;;;;10359662;28;20033;-76
2023/06/09 08:43:08;;;;;;;7.80;2.70;;;;;;;;;;10359878;28;20379;-78
2023/06/09 08:48:09;;;;;;;9.75;2.22;;;;;;;;;;10360263;28;20276;-78
2023/06/09 08:53:10;;;;;;;6.30;2.40;;;;;;;;;;10358739;28;20026;-77
2023/06/09 08:58:11;;;;;;;3.92;2.15;;;;;;;;;;10358809;28;20018;-79
2023/06/09 09:03:12;;;;;;;5.90;2.33;;;;;;;;;;10358565;28;20026;-77
2023/06/09 09:08:13;;;;;;;7.03;2.08;;;;;;;;;;10358735;28;20084;-78
2023/06/09 09:13:14;;;;;;;5.43;1.80;;;;;;;;;;10359263;28;20037;-77
2023/06/09 09:18:14;;;;;;;3.43;2.23;;;;;;;;;;10358686;28;20026;-76
2023/06/09 09:23:14;;;;;;;7.57;2.60;;;;;;;;;;10358195;28;20565;-77
2023/06/09 09:28:15;;;;;;;14.53;2.73;;;;;;;;;;10357964;28;20482;-75
2023/06/09 09:33:18;;;;;;;7.07;2.10;;;;;;;;;;10357912;28;20496;-75
2023/06/09 09:38:22;;;;;;;3.72;1.92;;;;;;;;;;10355978;28;20030;-74
2023/06/09 09:43:27;;;;;;;5.30;2.03;;;;;;;;;;10358424;28;20041;-73
2023/06/09 09:48:27;;;;;;;3.72;2.30;;;;;;;;;;10357209;28;20406;-77
2023/06/09 09:53:27;;;;;;;6.60;2.07;;;;;;;;;;10357443;28;20252;-77
2023/06/09 09:58:29;;;;;;;8.67;1.83;;;;;;;;;;10357195;28;20265;-79
2023/06/09 10:03:30;;;;;;;4.18;2.13;;;;;;;;;;10356693;28;20029;-74
2023/06/09 10:08:31;;;;;;;4.07;2.10;;;;;;;;;;10357211;28;20055;-76
2023/06/09 10:13:31;;;;;;;4.53;1.73;;;;;;;;;;10357408;28;20576;-73
2023/06/09 10:18:32;;;;;;;3.05;1.70;;;;;;;;;;10359138;28;20104;-76
2023/06/09 10:23:33;;;;;;;4.82;2.08;;;;;;;;;;10344727;28;20064;-76
2023/06/09 10:28:33;;;;;;;8.73;3.10;;;;;;;;;;10356013;28;20140;-76
2023/06/09 10:33:36;;;;;;;3.28;1.63;;;;;;;;;;10357936;28;20418;-76
2023/06/09 10:38:49;;;;;;;5.20;1.88;;;;;;;;;;10357080;28;20108;-79
2023/06/09 10:44:02;;;;;;;3.13;1.60;;;;;;;;;;10338270;28;20034;-78
2023/06/09 10:49:02;;;;;;;6.18;2.00;;;;;;;;;;10359229;28;20085;-84
2023/06/09 10:54:06;;;;;;;5.47;1.63;;;;;;;;;;10365762;28;20417;-80
2023/06/09 10:59:26;;;;;;;6.07;1.45;;;;;;;;;;10364823;28;20029;-76
2023/06/09 11:04:43;;;;;;;3.50;1.80;;;;;;;;;;10365224;28;20048;-82
2023/06/09 11:09:47;;;;;;;6.97;2.53;;;;;;;;;;10365061;28;20382;-75
2023/06/09 11:14:48;;;;;;;5.95;2.40;;;;;;;;;;10363722;28;20025;-84
2023/06/09 11:19:49;;;;;;;5.25;2.70;;;;;;;;;;10340533;28;20026;-79
2023/06/09 11:24:51;;;;;;;5.93;3.05;;;;;;;;;;10352104;28;20136;-79
2023/06/09 11:30:07;;;;;;;3.88;2.80;;;;;;;;;;10362984;28;20026;-76
2023/06/09 11:35:08;;;;;;;6.43;3.27;;;;;;;;;;10363131;28;20064;-76
2023/06/09 11:40:08;;;;;;;6.00;2.60;;;;;;;;;;10362506;28;20109;-78
2023/06/09 11:45:12;;;;;;;5.93;2.88;;;;;;;;;;10364534;28;20359;-80
2023/06/09 11:50:13;;;;;;;14.45;3.03;;;;;;;;;;10363072;28;20925;-77
2023/06/09 11:55:15;;;;;;;7.22;2.60;;;;;;;;;;10364305;28;20071;-81
2023/06/09 12:00:17;;;;;;;7.65;2.38;;;;;;;;;;10345916;28;20018;-82
2023/06/09 12:05:19;;;;;;;5.38;2.65;;;;;;;;;;10360551;28;20164;-80
2023/06/09 12:10:22;;;;;;;5.90;2.75;;;;;;;;;;10361471;28;20014;-77
2023/06/09 12:15:22;;;;;;;5.72;2.50;;;;;;;;;;10362205;28;20100;-79
2023/06/09 12:20:36;;;;;;;9.43;4.15;;;;;;;;;;10362650;28;20030;-82
2023/06/09 12:25:39;;;;;;;5.38;2.15;;;;;;;;;;10360392;28;20045;-81
2023/06/09 12:30:51;;;;;;;18.52;2.60;;;;;;;;;;10360303;28;20092;-78
2023/06/09 12:35:52;;;;;;;11.63;2.28;;;;;;;;;;10360773;28;20464;-78
2023/06/09 12:40:58;;;;;;;8.77;2.78;;;;;;;;;;10361481;28;20583;-77
2023/06/09 12:45:58;;;;;;;11.27;2.53;;;;;;;;;;10361534;28;20010;-75
2023/06/09 12:51:00;;;;;;;10.13;2.83;;;;;;;;;;10359618;28;20029;-83
2023/06/09 12:56:00;;;;;;;7.85;2.28;;;;;;;;;;10361141;28;20017;-73
2023/06/09 13:01:00;;;;;;;9.48;4.82;;;;;;;;;;10360385;28;20481;-80
2023/06/09 13:06:01;;;;;;;7.47;3.13;;;;;;;;;;10360714;28;20025;-79
2023/06/09 13:11:01;;;;;;;4.70;2.43;;;;;;;;;;10360948;28;20099;-80
2023/06/09 13:16:02;;;;;;;6.70;2.05;;;;;;;;;;10319266;28;20780;-80
2023/06/09 13:21:02;;;;;;;3.03;2.33;;;;;;;;;;10344028;28;20085;-77
2023/06/09 13:26:02;;;;;;;6.93;2.63;;;;;;;;;;10359491;28;20854;-79
2023/06/09 13:31:03;;;;;;;6.00;2.70;;;;;;;;;;10343725;28;20029;-79
2023/06/09 13:36:03;;;;;;;4.83;2.40;;;;;;;;;;10361037;28;20022;-74
2023/06/09 13:41:04;;;;;;;15.27;2.55;;;;;;;;;;10345578;28;20026;-80
2023/06/09 13:46:05;;;;;;;5.60;2.53;;;;;;;;;;10351779;28;20025;-76
2023/06/09 13:51:05;;;;;;;7.07;2.15;;;;;;;;;;10334002;28;20312;-80
2023/06/09 13:56:06;;;;;;;6.18;2.33;;;;;;;;;;10358574;28;20036;-79
2023/06/09 14:01:10;;;;;;;6.45;3.00;;;;;;;;;;10357749;28;20056;-80
2023/06/09 14:06:10;;;;;;;3.50;2.20;;;;;;;;;;10340915;28;20022;-76
2023/06/09 14:11:10;;;;;;;5.43;2.30;;;;;;;;;;10358127;28;20030;-81
2023/06/09 14:16:12;;;;;;;6.13;2.28;;;;;;;;;;10357868;28;20061;-80
2023/06/09 14:21:12;;;;;;;4.60;2.72;;;;;;;;;;10340781;28;20034;-76
2023/06/09 14:26:14;;;;;;;8.18;2.53;;;;;;;;;;10323654;28;20054;-81
2023/06/09 14:31:15;;;;;;;6.90;3.17;;;;;;;;;;10345926;28;20034;-78
2023/06/09 14:36:16;;;;;;;9.05;3.28;;;;;;;;;;10328781;28;20057;-76
2023/06/09 14:41:16;;;;;;;6.37;2.63;;;;;;;;;;10329677;28;20543;-79
2023/06/09 14:46:16;;;;;;;4.72;2.17;;;;;;;;;;10330240;28;20088;-77
2023/06/09 14:51:17;;;;;;;4.97;2.33;;;;;;;;;;10372190;28;20504;-78
2023/06/09 14:56:17;;;;;;;5.05;2.63;;;;;;;;;;10371545;28;20022;-72
2023/06/09 15:01:17;;;;;;;7.07;3.63;;;;;;;;;;10366160;28;20104;-79
2023/06/09 15:06:18;;;;;;;7.90;3.38;;;;;;;;;;10367441;28;20026;-80
2023/06/09 15:11:20;;;;;;;10.32;4.68;;;;;;;;;;10364175;28;20412;-80
2023/06/09 15:16:20;;;;;;;3.38;2.05;;;;;;;;;;10365564;28;20041;-80
2023/06/09 15:21:21;;;;;;;9.07;3.00;;;;;;;;;;10364486;28;20445;-80
2023/06/09 15:26:21;;;;;;;4.97;2.72;;;;;;;;;;10363167;28;20586;-79
2023/06/09 15:31:21;;;;;;;10.77;3.13;;;;;;;;;;10363744;28;20437;-78
2023/06/09 15:36:22;;;;;;;7.38;4.07;;;;;;;;;;10362724;28;20025;-80
2023/06/09 15:41:24;;;;;;;11.77;4.65;;;;;;;;;;10364842;28;20025;-76
2023/06/09 15:46:24;;;;;;;8.07;5.13;;;;;;;;;;10364919;28;20113;-80
2023/06/09 15:51:25;;;;;;;14.18;7.03;;;;;;;;;;10363240;28;20028;-78
2023/06/09 15:56:25;;;;;;;19.77;7.28;;;;;;;;;;10364240;28;20060;-76
2023/06/09 16:01:26;;;;;;;17.42;8.63;;;;;;;;;;10364621;28;20018;-80
2023/06/09 16:06:26;;;;;;;15.83;8.87;;;;;;;;;;10363653;28;20085;-77
2023/06/09 16:11:26;;;;;;;14.40;7.95;;;;;;;;;;10362872;28;20293;-79
2023/06/09 16:16:27;;;;;;;13.57;7.93;;;;;;;;;;10363571;28;20024;-78
2023/06/09 16:21:27;;;;;;;12.23;7.83;;;;;;;;;;10329263;28;20038;-74
2023/06/09 16:26:27;;;;;;;11.63;8.07;;;;;;;;;;10339209;28;20042;-80
2023/06/09 16:31:28;;;;;;;9.93;7.53;;;;;;;;;;10360763;28;20026;-75
2023/06/09 16:36:28;;;;;;;9.30;7.07;;;;;;;;;;10361693;28;20026;-77
2023/06/09 16:41:29;;;;;;;16.23;7.50;;;;;;;;;;10362166;28;20088;-81
2023/06/09 16:46:29;;;;;;;14.05;8.32;;;;;;;;;;10360677;28;20024;-79
2023/06/09 16:51:30;;;;;;;12.47;7.90;;;;;;;;;;10345482;28;20547;-84
2023/06/09 16:56:30;;;;;;;12.18;8.68;;;;;;;;;;10361497;28;20466;-83
2023/06/09 17:01:30;;;;;;;14.98;8.95;;;;;;;;;;10360255;28;20041;-76
2023/06/09 17:06:31;;;;;;;12.18;8.65;;;;;;;;;;10360936;28;20068;-82
2023/06/09 17:11:32;;;;;;;11.73;7.07;;;;;;;;;;10361099;28;20469;-74
2023/06/09 17:16:39;;;;;;;11.35;7.68;;;;;;;;;;10360962;28;20560;-80
2023/06/09 17:21:44;;;;;;;12.32;7.53;;;;;;;;;;10351949;28;20826;-76
2023/06/09 17:26:45;;;;;;;9.50;7.53;;;;;;;;;;10373013;28;20053;-78
2023/06/09 17:31:45;;;;;;;13.02;7.85;;;;;;;;;;10361098;28;20033;-79
2023/06/09 17:36:46;;;;;;;16.10;7.27;;;;;;;;;;10363870;28;20018;-75
2023/06/09 17:41:46;;;;;;;13.15;6.10;;;;;;;;;;10369330;28;20025;-81
2023/06/09 17:46:46;;;;;;;13.60;7.57;;;;;;;;;;10366132;28;20014;-80
2023/06/09 17:51:46;;;;;;;14.30;7.20;;;;;;;;;;10359209;28;20501;-74
2023/06/09 17:56:47;;;;;;;11.82;7.80;;;;;;;;;;10367500;28;20520;-80
2023/06/09 18:01:47;;;;;;;10.83;7.07;;;;;;;;;;10363726;28;20118;-80
2023/06/09 18:06:48;;;;;;;11.68;6.93;;;;;;;;;;10341982;28;20049;-78
2023/06/09 18:11:49;;;;;;;13.85;6.85;;;;;;;;;;10357479;28;20033;-78
2023/06/09 18:16:49;;;;;;;9.05;6.40;;;;;;;;;;10355614;28;20502;-78
2023/06/09 18:21:49;;;;;;;15.90;6.40;;;;;;;;;;10357120;28;20929;-75
2023/06/09 18:26:50;;;;;;;10.52;6.72;;;;;;;;;;10356925;28;20062;-77
2023/06/09 18:31:50;;;;;;;10.10;6.15;;;;;;;;;;10359684;28;20064;-76
2023/06/09 18:36:50;;;;;;;12.67;6.80;;;;;;;;;;10340339;28;20026;-77
2023/06/09 18:41:52;;;;;;;14.70;6.57;;;;;;;;;;10331445;28;20034;-77
2023/06/09 18:46:52;;;;;;;13.23;6.93;;;;;;;;;;10344378;28;20031;-76
2023/06/09 18:51:52;;;;;;;11.05;6.35;;;;;;;;;;10348163;28;20046;-79
2023/06/09 18:56:54;;;;;;;12.57;7.15;;;;;;;;;;10338917;28;20026;-75
2023/06/09 19:01:54;;;;;;;6.85;5.05;;;;;;;;;;10348241;28;20045;-78
2023/06/09 19:06:55;;;;;;;10.50;5.60;;;;;;;;;;10342770;28;20040;-78
2023/06/09 19:11:55;;;;;;;21.40;8.53;;;;;;;;;;10355994;28;20022;-75
2023/06/09 19:16:57;;;;;;;10.77;7.10;;;;;;;;;;10372540;28;20030;-80
2023/06/09 19:21:57;;;;;;;14.75;7.80;;;;;;;;;;10353947;28;20038;-78
2023/06/09 19:26:57;;;;;;;12.50;7.60;;;;;;;;;;10341889;28;20418;-76
2023/06/09 19:31:58;;;;;;;8.32;6.25;;;;;;;;;;10355701;28;20945;-79
2023/06/09 19:36:58;;;;;;;16.27;6.00;;;;;;;;;;10331766;28;20482;-75
2023/06/09 19:41:58;;;;;;;9.35;6.32;;;;;;;;;;10361280;28;20117;-79
2023/06/09 19:47:01;;;;;;;8.97;6.80;;;;;;;;;;10363709;28;20029;-83
2023/06/09 19:52:01;;;;;;;10.98;7.85;;;;;;;;;;10345757;28;20288;-79
2023/06/09 19:57:02;;;;;;;15.77;7.43;;;;;;;;;;10364037;28;20411;-78
2023/06/09 20:02:03;;;;;;;16.48;7.72;;;;;;;;;;10360570;28;20432;-78
2023/06/09 20:07:03;;;;;;;10.77;7.73;;;;;;;;;;10354868;28;20069;-72
2023/06/09 20:12:05;;;;;;;11.37;7.10;;;;;;;;;;10348529;28;20656;-82
2023/06/09 20:17:06;;;;;;;16.23;7.93;;;;;;;;;;10348166;28;20069;-76
2023/06/09 20:22:08;;;;;;;17.40;9.27;;;;;;;;;;10351657;28;20576;-79
2023/06/09 20:27:09;;;;;;;13.40;7.45;;;;;;;;;;10344697;28;20063;-79
2023/06/09 20:32:10;;;;;;;19.50;6.95;;;;;;;;;;10357081;28;20038;-79
2023/06/09 20:37:10;;;;;;;11.68;6.88;;;;;;;;;;10353343;28;20099;-80
2023/06/09 20:42:10;;;;;;;19.00;8.25;;;;;;;;;;10351365;28;20058;-76
2023/06/09 20:47:12;;;;;;;13.30;7.57;;;;;;;;;;10347812;28;20030;-80
2023/06/09 20:52:13;;;;;;;11.35;6.38;;;;;;;;;;10356820;28;20173;-80
2023/06/09 20:57:13;;;;;;;18.43;6.90;;;;;;;;;;10332640;28;20507;-82
2023/06/09 21:02:14;;;;;;;11.98;7.20;;;;;;;;;;10343872;28;20030;-77
2023/06/09 21:07:15;;;;;;;11.88;5.82;;;;;;;;;;10342001;28;20126;-79
2023/06/09 21:12:16;;;;;;;10.93;5.97;;;;;;;;;;10355002;28;20033;-83
2023/06/09 21:17:16;;;;;;;9.63;4.82;;;;;;;;;;10351776;28;20075;-80
2023/06/09 21:22:17;;;;;;;6.93;5.28;;;;;;;;;;10347670;28;20474;-80
2023/06/09 21:27:17;;;;;;;14.20;6.03;;;;;;;;;;10344901;28;20057;-76
2023/06/09 21:32:17;;;;;;;14.10;6.13;;;;;;;;;;10349320;28;20061;-79
2023/06/09 21:37:17;;;;;;;12.00;5.50;;;;;;;;;;10333983;28;20041;-77
2023/06/09 21:42:21;;;;;;;10.20;4.77;;;;;;;;;;10347479;28;20092;-79
2023/06/09 21:47:21;;;;;;;9.25;4.97;;;;;;;;;;10346378;28;20104;-81
2023/06/09 21:52:21;;;;;;;9.40;5.03;;;;;;;;;;10343731;28;20409;-74
2023/06/09 21:57:22;;;;;;;8.32;4.47;;;;;;;;;;10353730;28;20616;-73
2023/06/09 22:02:22;;;;;;;8.63;5.60;;;;;;;;;;10352335;28;20103;-75
2023/06/09 22:07:23;;;;;;;13.38;4.75;;;;;;;;;;10347026;28;20055;-80
2023/06/09 22:12:27;;;;;;;12.35;5.47;;;;;;;;;;10347870;28;20040;-80
2023/06/09 22:17:28;;;;;;;8.23;4.82;;;;;;;;;;10325333;28;20028;-79
2023/06/09 22:22:28;;;;;;;9.73;5.88;;;;;;;;;;10345266;28;20030;-75
2023/06/09 22:27:31;;;;;;;12.30;6.30;;;;;;;;;;10344015;28;20069;-77
2023/06/09 22:32:31;;;;;;;16.23;6.32;;;;;;;;;;10345369;28;20057;-79
2023/06/09 22:37:31;;;;;;;15.60;6.38;;;;;;;;;;10345055;28;20033;-78
2023/06/09 22:42:31;;;;;;;13.40;6.10;;;;;;;;;;10340756;28;20037;-78
2023/06/09 22:47:32;;;;;;;12.43;6.50;;;;;;;;;;10349681;28;20030;-77
2023/06/09 22:52:33;;;;;;;13.77;7.32;;;;;;;;;;10354781;28;20066;-76
2023/06/09 22:57:33;;;;;;;11.50;6.97;;;;;;;;;;10354842;28;20498;-80
2023/06/09 23:02:34;;;;;;;11.13;6.80;;;;;;;;;;10348213;28;20022;-74
2023/06/09 23:07:35;;;;;;;9.53;6.63;;;;;;;;;;10352479;28;20524;-81
2023/06/09 23:12:35;;;;;;;9.07;6.20;;;;;;;;;;10358691;28;20304;-78
2023/06/09 23:17:37;;;;;;;8.40;6.57;;;;;;;;;;10357826;28;20180;-77
2023/06/09 23:22:39;;;;;;;11.63;8.27;;;;;;;;;;10350888;28;20022;-74
2023/06/09 23:27:41;;;;;;;11.05;7.63;;;;;;;;;;10354904;28;20088;-78
2023/06/09 23:32:42;;;;;;;15.73;8.73;;;;;;;;;;10356348;28;20022;-79
2023/06/09 23:37:42;;;;;;;16.30;8.77;;;;;;;;;;10358724;28;20024;-84
2023/06/09 23:42:42;;;;;;;13.80;8.65;;;;;;;;;;10359484;28;20026;-80
2023/06/09 23:47:43;;;;;;;15.02;8.60;;;;;;;;;;10342378;28;20076;-75
2023/06/09 23:52:43;;;;;;;16.10;8.77;;;;;;;;;;10348814;28;20026;-79
2023/06/09 23:57:44;;;;;;;17.05;10.13;;;;;;;;;;10349634;28;20464;-81
